Time;durP1;ratioP1;P1;durP2;ratioP2;P2;SDS_P1;SDS_P2;PMS_P1;PMS_P2;Temp;Humidity;BMP_temperature;BMP_pressure;BME280_temperature;BME280_humidity;BME280_pressure;Samples;Min_cycle;Max_cycle;Signal;HPM_P1;HPM_P2
2022/04/20 00:01:15;;;;;;;13.00;8.18;;;4.90;93.70;;;;;;5031054;28;20542;-81
2022/04/20 00:03:40;;;;;;;27.83;11.50;;;4.80;94.50;;;;;;5036706;28;20029;-80
2022/04/20 00:06:06;;;;;;;16.02;9.40;;;4.60;95.10;;;;;;5030761;28;20499;-82
2022/04/20 00:08:32;;;;;;;12.90;8.95;;;4.60;95.30;;;;;;5041938;28;20123;-81
2022/04/20 00:11:01;;;;;;;17.55;9.52;;;4.50;96.60;;;;;;5025123;28;20451;-81
2022/04/20 00:13:27;;;;;;;15.80;10.32;;;4.60;96.20;;;;;;5043856;28;20029;-83
2022/04/20 00:15:53;;;;;;;17.73;10.77;;;4.60;96.50;;;;;;5040165;28;20037;-82
2022/04/20 00:18:19;;;;;;;14.57;10.27;;;4.50;96.50;;;;;;5040986;28;20033;-81
2022/04/20 00:20:44;;;;;;;15.95;9.85;;;4.50;96.60;;;;;;5053329;28;20125;-82
2022/04/20 00:23:10;;;;;;;15.38;9.50;;;4.40;97.10;;;;;;5032025;28;20495;-82
2022/04/20 00:25:36;;;;;;;17.92;10.63;;;4.30;97.10;;;;;;5035296;28;20491;-82
2022/04/20 00:28:01;;;;;;;15.10;9.60;;;4.30;97.90;;;;;;5026854;28;20453;-81
2022/04/20 00:30:27;;;;;;;15.57;9.95;;;4.30;98.40;;;;;;5048682;28;20052;-83
2022/04/20 00:32:53;;;;;;;16.33;10.38;;;4.30;98.10;;;;;;5050845;28;20049;-82
2022/04/20 00:35:18;;;;;;;15.70;9.70;;;4.30;98.50;;;;;;5045342;28;20075;-82
2022/04/20 00:37:45;;;;;;;20.27;9.57;;;4.10;98.60;;;;;;5054861;28;20488;-83
2022/04/20 00:40:11;;;;;;;20.35;11.30;;;4.00;99.00;;;;;;5062852;28;20033;-82
2022/04/20 00:42:40;;;;;;;17.30;12.30;;;3.90;99.90;;;;;;5076712;28;20857;-82
2022/04/20 00:45:07;;;;;;;16.73;10.30;;;3.80;99.90;;;;;;5056803;28;20127;-83
2022/04/20 00:47:36;;;;;;;21.30;10.82;;;3.70;99.90;;;;;;5040259;28;20036;-83
2022/04/20 00:50:03;;;;;;;17.40;9.95;;;3.60;99.90;;;;;;5057988;28;20032;-84
2022/04/20 00:52:29;;;;;;;17.13;10.20;;;3.50;99.90;;;;;;5052329;28;20115;-83
2022/04/20 00:54:55;;;;;;;18.40;10.40;;;3.50;99.90;;;;;;5055247;28;20539;-83
2022/04/20 00:57:20;;;;;;;19.92;10.55;;;3.50;99.90;;;;;;5055277;28;20028;-82
2022/04/20 00:59:48;;;;;;;22.13;11.25;;;3.50;99.90;;;;;;5054062;28;20059;-83
2022/04/20 01:02:14;;;;;;;16.10;10.45;;;3.40;99.90;;;;;;5042985;28;20044;-83
2022/04/20 01:04:39;;;;;;;14.20;10.05;;;3.30;99.90;;;;;;5043386;28;20017;-83
2022/04/20 01:07:12;;;;;;;16.52;9.02;;;3.40;99.90;;;;;;5046650;28;20090;-83
2022/04/20 01:09:39;;;;;;;17.17;10.57;;;3.40;99.90;;;;;;5047842;28;20029;-82
2022/04/20 01:12:06;;;;;;;15.52;10.18;;;3.50;99.90;;;;;;5045469;28;20037;-84
2022/04/20 01:14:32;;;;;;;19.05;10.07;;;3.40;99.90;;;;;;5047210;28;20033;-83
2022/04/20 01:16:57;;;;;;;15.38;10.32;;;3.30;99.90;;;;;;5046896;28;20040;-83
2022/04/20 01:19:38;;;;;;;17.20;9.13;;;3.40;99.90;;;;;;5032162;28;20029;-83
2022/04/20 01:22:04;;;;;;;;;;;3.30;99.90;;;;;;5048779;28;20033;-85
2022/04/20 01:24:31;;;;;;;16.60;8.88;;;3.30;99.90;;;;;;5050837;28;19912;-83
2022/04/20 01:26:57;;;;;;;14.30;8.68;;;3.30;99.90;;;;;;5034350;28;20392;-83
2022/04/20 01:29:24;;;;;;;19.85;9.57;;;3.30;99.90;;;;;;5050739;28;20398;-83
2022/04/20 01:31:50;;;;;;;19.02;9.50;;;3.30;99.90;;;;;;5052702;28;20053;-84
2022/04/20 01:34:16;;;;;;;13.18;7.53;;;3.30;99.90;;;;;;5063816;28;20044;-84
2022/04/20 01:36:42;;;;;;;15.73;9.45;;;3.30;99.70;;;;;;5063271;28;20251;-83
2022/04/20 01:39:07;;;;;;;16.27;9.40;;;3.30;99.70;;;;;;5052342;28;20041;-83
2022/04/20 01:41:33;;;;;;;14.90;9.27;;;3.20;99.40;;;;;;5083771;28;20123;-83
2022/04/20 01:43:59;;;;;;;15.80;9.07;;;3.00;99.50;;;;;;5050619;28;20044;-83
2022/04/20 01:46:24;;;;;;;13.98;8.63;;;3.00;99.90;;;;;;5050920;28;20078;-83
2022/04/20 01:48:50;;;;;;;15.70;9.10;;;3.10;99.90;;;;;;5050294;28;20052;-83
2022/04/20 01:54:00;;;;;;;18.67;9.68;;;3.00;99.90;;;;;;5051075;28;20124;-83
2022/04/20 01:56:26;;;;;;;14.93;10.18;;;3.00;99.90;;;;;;5045661;28;20120;-82
2022/04/20 01:58:51;;;;;;;16.27;9.43;;;2.80;99.90;;;;;;5050000;28;20028;-83
2022/04/20 02:04:01;;;;;;;18.63;10.02;;;2.70;99.90;;;;;;5058679;28;20071;-85
2022/04/20 02:06:27;;;;;;;19.63;9.93;;;2.60;99.90;;;;;;5050446;28;20435;-81
2022/04/20 02:08:52;;;;;;;15.63;9.25;;;2.50;99.90;;;;;;5049838;28;20136;-82
2022/04/20 02:11:18;;;;;;;16.17;9.43;;;2.50;99.90;;;;;;5032875;28;20071;-83
2022/04/20 02:13:44;;;;;;;17.42;9.68;;;2.60;99.90;;;;;;5033543;28;20120;-83
2022/04/20 02:16:09;;;;;;;15.25;9.30;;;2.60;99.90;;;;;;5049474;28;20463;-83
2022/04/20 02:18:35;;;;;;;16.90;10.00;;;2.60;99.90;;;;;;5049729;28;20048;-83
2022/04/20 02:21:01;;;;;;;15.25;9.02;;;2.60;99.90;;;;;;5050257;28;20039;-84
2022/04/20 02:23:26;;;;;;;15.93;9.10;;;2.50;99.90;;;;;;5064744;28;20119;-84
2022/04/20 02:25:53;;;;;;;17.10;8.88;;;2.50;99.90;;;;;;5049237;28;20028;-84
2022/04/20 02:28:18;;;;;;;14.77;9.55;;;2.40;99.90;;;;;;5049853;28;20032;-83
2022/04/20 02:30:44;;;;;;;11.65;8.32;;;2.30;99.90;;;;;;5042374;28;20034;-83
2022/04/20 02:33:10;;;;;;;15.07;8.85;;;2.20;99.90;;;;;;5050560;28;20053;-82
2022/04/20 02:35:37;;;;;;;15.73;9.30;;;2.20;99.90;;;;;;5050243;28;20138;-85
2022/04/20 02:38:03;;;;;;;13.35;8.93;;;2.30;99.90;;;;;;5049795;28;20037;-83
2022/04/20 02:40:30;;;;;;;13.20;7.85;;;2.30;99.90;;;;;;5050741;28;20083;-83
2022/04/20 02:42:56;;;;;;;13.30;10.07;;;2.30;99.90;;;;;;5049295;28;20045;-83
2022/04/20 02:45:22;;;;;;;16.40;10.10;;;2.20;99.90;;;;;;5049167;28;20254;-83
2022/04/20 02:47:48;;;;;;;14.68;9.93;;;2.20;99.90;;;;;;5050724;28;20559;-83
2022/04/20 02:50:14;;;;;;;15.20;10.20;;;2.20;99.90;;;;;;5048901;28;20403;-83
2022/04/20 02:52:39;;;;;;;19.05;8.77;;;2.20;99.90;;;;;;5032604;28;20033;-83
2022/04/20 02:55:05;;;;;;;17.88;9.75;;;2.10;99.90;;;;;;5046854;28;20038;-83
2022/04/20 02:57:31;;;;;;;13.98;9.07;;;2.00;99.90;;;;;;5050303;28;20018;-83
2022/04/20 02:59:57;;;;;;;16.08;10.18;;;2.00;99.90;;;;;;5048757;28;20566;-83
2022/04/20 03:02:22;;;;;;;19.10;9.48;;;1.90;99.90;;;;;;5049960;28;20033;-84
2022/04/20 03:04:48;;;;;;;18.30;10.90;;;2.00;99.90;;;;;;5048553;28;20082;-82
2022/04/20 03:07:14;;;;;;;22.35;12.20;;;2.00;99.90;;;;;;5049204;28;20100;-83
2022/04/20 03:09:39;;;;;;;18.70;11.07;;;1.90;99.90;;;;;;5050303;28;20033;-83
2022/04/20 03:12:05;;;;;;;23.15;10.48;;;1.80;99.90;;;;;;5049121;28;20040;-83
2022/04/20 03:14:31;;;;;;;18.70;10.57;;;1.90;99.90;;;;;;5030352;28;20029;-83
2022/04/20 03:16:57;;;;;;;16.85;10.20;;;1.80;99.90;;;;;;5050028;28;20492;-84
2022/04/20 03:19:22;;;;;;;20.08;11.45;;;1.70;99.90;;;;;;5047838;28;20039;-83
2022/04/20 03:21:48;;;;;;;18.95;10.05;;;1.70;99.90;;;;;;5048138;28;20228;-83
2022/04/20 03:24:14;;;;;;;19.05;11.50;;;1.70;99.90;;;;;;5047661;28;20535;-84
2022/04/20 03:26:39;;;;;;;16.42;10.82;;;1.70;99.90;;;;;;5051035;28;20024;-83
2022/04/20 03:29:05;;;;;;;17.00;9.73;;;1.70;99.90;;;;;;5032555;28;20040;-83
2022/04/20 03:31:34;;;;;;;18.42;9.63;;;1.70;99.90;;;;;;5046918;28;20144;-83
2022/04/20 03:34:01;;;;;;;30.40;10.88;;;1.70;99.90;;;;;;5048167;28;20040;-85
2022/04/20 03:36:26;;;;;;;21.95;11.48;;;1.70;99.90;;;;;;5047988;28;20025;-82
2022/04/20 03:38:53;;;;;;;17.45;10.07;;;1.70;99.90;;;;;;5048256;28;20099;-84
2022/04/20 03:41:18;;;;;;;17.45;9.68;;;1.60;99.90;;;;;;5049023;28;20028;-83
2022/04/20 03:43:45;;;;;;;20.35;10.90;;;1.60;99.90;;;;;;5048061;28;20037;-86
2022/04/20 03:46:11;;;;;;;16.42;10.07;;;1.50;99.90;;;;;;5046420;28;20056;-84
2022/04/20 03:48:37;;;;;;;17.13;11.13;;;1.40;99.90;;;;;;5047875;28;20029;-83
2022/04/20 03:51:03;;;;;;;22.05;12.45;;;1.50;99.90;;;;;;5046909;28;20044;-85
2022/04/20 03:53:29;;;;;;;20.92;11.40;;;1.50;99.90;;;;;;5047764;28;20029;-84
2022/04/20 03:55:54;;;;;;;18.60;11.60;;;1.40;99.90;;;;;;5048839;28;20099;-84
2022/04/20 03:58:21;;;;;;;21.05;11.18;;;1.30;99.90;;;;;;5030947;28;20074;-83
2022/04/20 04:00:46;;;;;;;19.52;11.38;;;1.30;99.90;;;;;;5049020;28;20488;-84
2022/04/20 04:03:12;;;;;;;20.27;11.18;;;1.10;99.90;;;;;;5028298;28;20044;-83
2022/04/20 04:05:38;;;;;;;22.52;11.65;;;1.20;99.90;;;;;;5048659;28;20391;-82
2022/04/20 04:08:05;;;;;;;22.77;11.75;;;1.20;99.90;;;;;;5048337;28;20041;-84
2022/04/20 04:10:30;;;;;;;21.50;11.90;;;1.20;99.90;;;;;;5047271;28;20109;-83
2022/04/20 04:12:56;;;;;;;22.83;11.98;;;1.20;99.90;;;;;;5048681;28;20548;-83
2022/04/20 04:15:22;;;;;;;20.80;11.68;;;1.20;99.90;;;;;;5048778;28;20037;-86
2022/04/20 04:17:54;;;;;;;24.50;11.05;;;1.20;99.90;;;;;;5049196;28;20120;-85
2022/04/20 04:20:23;;;;;;;22.48;11.90;;;1.20;99.90;;;;;;5046721;28;20033;-84
2022/04/20 04:22:52;;;;;;;21.17;14.38;;;1.30;99.90;;;;;;5048019;28;20055;-83
2022/04/20 04:25:18;;;;;;;23.50;12.40;;;1.10;99.90;;;;;;5037248;28;20029;-83
2022/04/20 04:27:44;;;;;;;23.25;11.98;;;1.10;99.90;;;;;;5050895;28;20087;-84
2022/04/20 04:30:10;;;;;;;23.75;13.38;;;1.20;99.90;;;;;;5044327;28;20025;-84
2022/04/20 04:32:35;;;;;;;22.40;12.70;;;1.20;99.90;;;;;;5047046;28;20131;-84
2022/04/20 04:35:01;;;;;;;19.80;11.98;;;1.20;99.90;;;;;;5045515;28;20113;-85
2022/04/20 04:37:27;;;;;;;19.05;12.00;;;1.30;99.90;;;;;;5044087;28;20437;-82
2022/04/20 04:39:53;;;;;;;21.90;11.85;;;1.30;99.90;;;;;;5046480;28;20045;-83
2022/04/20 04:42:19;;;;;;;22.77;13.23;;;1.40;99.90;;;;;;5046980;28;20503;-85
2022/04/20 04:44:45;;;;;;;24.63;13.00;;;1.40;99.90;;;;;;5046385;28;20029;-84
2022/04/20 04:49:55;;;;;;;18.45;11.32;;;1.20;99.90;;;;;;5048486;28;20090;-83
2022/04/20 04:52:20;;;;;;;25.88;12.32;;;1.30;99.90;;;;;;5045827;28;20037;-85
2022/04/20 04:54:46;;;;;;;24.02;12.90;;;1.40;99.90;;;;;;5046563;28;20076;-85
2022/04/20 04:57:12;;;;;;;28.42;13.95;;;1.60;99.90;;;;;;5045640;28;20496;-85
2022/04/20 04:59:42;;;;;;;26.70;13.23;;;1.60;99.90;;;;;;5047941;28;20079;-87
2022/04/20 05:02:09;;;;;;;24.30;12.45;;;1.60;99.90;;;;;;5047352;28;20033;-85
2022/04/20 05:04:36;;;;;;;22.58;12.50;;;1.70;99.90;;;;;;5041545;28;20057;-84
2022/04/20 05:07:02;;;;;;;23.67;12.27;;;1.70;99.90;;;;;;5046928;28;20037;-83
2022/04/20 05:09:27;;;;;;;27.13;14.68;;;1.70;99.90;;;;;;5047671;28;20066;-83
2022/04/20 05:11:54;;;;;;;23.52;13.40;;;1.70;99.90;;;;;;5045870;28;20033;-84
2022/04/20 05:14:20;;;;;;;28.30;13.15;;;1.80;99.90;;;;;;5042470;28;20484;-83
2022/04/20 05:16:46;;;;;;;28.13;15.50;;;1.80;99.90;;;;;;5044741;28;20040;-86
2022/04/20 05:19:11;;;;;;;27.35;14.45;;;1.80;99.90;;;;;;5046557;28;20667;-86
2022/04/20 05:21:37;;;;;;;26.92;15.10;;;1.70;99.90;;;;;;5046790;28;20033;-84
2022/04/20 05:24:03;;;;;;;30.95;16.05;;;1.70;99.90;;;;;;5046461;28;20091;-84
2022/04/20 05:26:29;;;;;;;19.70;10.43;;;1.70;99.90;;;;;;5046249;28;20502;-86
2022/04/20 05:28:54;;;;;;;29.48;14.38;;;1.80;99.90;;;;;;5041802;28;20037;-86
2022/04/20 05:31:20;;;;;;;28.80;14.00;;;2.00;99.90;;;;;;5047340;28;20036;-86
2022/04/20 05:33:47;;;;;;;26.02;13.98;;;2.10;99.90;;;;;;5047385;28;20037;-84
2022/04/20 05:36:12;;;;;;;30.27;15.88;;;2.10;99.90;;;;;;5046348;28;20029;-86
2022/04/20 05:41:41;;;;;;;30.02;15.32;;;2.20;99.90;;;;;;5047630;28;20032;-84
2022/04/20 05:44:09;;;;;;;24.52;13.20;;;2.20;99.90;;;;;;5046580;28;20021;-86
2022/04/20 05:46:35;;;;;;;28.13;14.73;;;2.20;99.90;;;;;;5046082;28;20492;-86
2022/04/20 05:49:01;;;;;;;21.33;12.55;;;2.20;99.90;;;;;;5043752;28;20176;-84
2022/04/20 05:51:27;;;;;;;26.17;13.85;;;2.30;99.90;;;;;;5046395;28;20537;-83
2022/04/20 05:53:52;;;;;;;23.75;14.60;;;2.40;99.90;;;;;;5046588;28;20419;-84
2022/04/20 05:56:18;;;;;;;26.13;13.80;;;2.50;99.90;;;;;;5029541;28;20037;-83
2022/04/20 05:58:46;;;;;;;33.03;12.85;;;2.60;99.90;;;;;;5042086;28;20065;-84
2022/04/20 06:01:11;;;;;;;21.10;12.73;;;2.70;99.90;;;;;;5044889;28;20033;-83
2022/04/20 06:03:37;;;;;;;25.48;12.57;;;2.70;99.90;;;;;;5044869;28;20100;-83
2022/04/20 06:06:03;;;;;;;24.23;13.45;;;2.80;99.90;;;;;;5047857;28;20052;-83
2022/04/20 06:08:30;;;;;;;28.05;14.93;;;2.80;99.90;;;;;;5051655;28;20079;-83
2022/04/20 06:10:57;;;;;;;22.52;11.85;;;2.90;99.90;;;;;;5062739;28;20413;-83
2022/04/20 06:13:24;;;;;;;22.48;12.48;;;2.90;99.90;;;;;;5059802;28;20124;-83
2022/04/20 06:15:50;;;;;;;23.20;11.32;;;3.20;99.90;;;;;;5049499;28;20060;-84
2022/04/20 06:18:15;;;;;;;22.10;12.30;;;3.30;99.90;;;;;;5052583;28;20021;-84
2022/04/20 06:20:41;;;;;;;23.17;10.35;;;3.40;99.90;;;;;;5045266;28;20839;-83
2022/04/20 06:23:07;;;;;;;15.90;8.73;;;3.50;99.90;;;;;;5047026;28;20459;-83
2022/04/20 06:25:32;;;;;;;20.23;10.82;;;3.50;99.90;;;;;;5045621;28;20037;-84
2022/04/20 06:27:59;;;;;;;24.75;13.32;;;3.60;99.90;;;;;;5047866;28;20025;-83
2022/04/20 06:30:24;;;;;;;17.50;10.27;;;3.70;99.90;;;;;;5048932;28;20221;-82
2022/04/20 06:32:50;;;;;;;18.92;10.90;;;3.80;99.90;;;;;;5050015;28;20507;-83
2022/04/20 06:35:16;;;;;;;20.90;10.13;;;3.80;99.90;;;;;;5046370;28;20076;-83
2022/04/20 06:37:41;;;;;;;19.33;10.35;;;4.00;99.90;;;;;;5032177;28;20754;-87
2022/04/20 06:40:08;;;;;;;17.50;9.80;;;3.90;99.60;;;;;;5029188;28;20499;-87
2022/04/20 06:42:34;;;;;;;17.20;9.02;;;3.90;99.90;;;;;;5045375;28;20029;-86
2022/04/20 06:44:59;;;;;;;16.13;9.55;;;3.90;98.80;;;;;;5048709;28;20498;-86
2022/04/20 06:47:27;;;;;;;17.27;9.18;;;4.20;99.90;;;;;;5037210;28;20048;-87
2022/04/20 06:49:53;;;;;;;14.32;9.02;;;4.30;97.80;;;;;;5047878;28;20082;-86
2022/04/20 07:00:32;;;;;;;19.23;8.20;;;4.70;95.20;;;;;;5047387;28;20036;-86
2022/04/20 07:02:59;;;;;;;18.55;9.73;;;4.60;95.80;;;;;;5043174;28;20033;-86
2022/04/20 07:05:25;;;;;;;17.80;9.32;;;4.80;96.10;;;;;;5046677;28;20052;-86
2022/04/20 07:07:50;;;;;;;13.27;8.02;;;4.90;95.20;;;;;;5048727;28;20063;-88
2022/04/20 07:10:16;;;;;;;18.90;9.43;;;5.00;95.90;;;;;;5032161;28;20418;-86
2022/04/20 07:12:42;;;;;;;18.40;11.52;;;5.20;95.10;;;;;;5048154;28;20033;-86
2022/04/20 07:15:08;;;;;;;19.55;9.98;;;5.30;95.10;;;;;;5034117;28;20522;-86
2022/04/20 07:17:33;;;;;;;16.13;8.82;;;5.30;94.60;;;;;;5047586;28;20543;-87
2022/04/20 07:20:00;;;;;;;14.73;8.75;;;5.40;93.80;;;;;;5046027;28;20842;-89
2022/04/20 07:22:26;;;;;;;16.63;9.00;;;5.50;93.00;;;;;;5043521;28;20025;-87
2022/04/20 07:24:52;;;;;;;18.23;9.20;;;5.40;91.30;;;;;;5049247;28;20082;-86
2022/04/20 07:27:18;;;;;;;18.73;10.32;;;5.50;91.80;;;;;;5049317;28;20025;-86
2022/04/20 07:29:44;;;;;;;16.80;9.13;;;5.80;92.00;;;;;;5044859;28;20044;-86
2022/04/20 07:32:10;;;;;;;15.00;9.07;;;6.00;91.10;;;;;;5043787;28;20491;-87
2022/04/20 07:34:36;;;;;;;21.10;9.52;;;6.10;89.70;;;;;;5050421;28;20044;-86
2022/04/20 07:37:03;;;;;;;18.02;9.88;;;6.30;90.30;;;;;;5031362;28;20040;-86
2022/04/20 07:39:29;;;;;;;12.75;5.75;;;6.30;85.70;;;;;;5047346;28;20037;-89
2022/04/20 07:41:55;;;;;;;12.25;6.60;;;6.30;81.60;;;;;;5049541;28;20040;-90
2022/04/20 07:44:20;;;;;;;15.75;8.38;;;6.20;82.00;;;;;;5044801;28;20024;-88
2022/04/20 07:46:46;;;;;;;16.63;9.23;;;6.20;85.20;;;;;;5045483;28;20041;-89
2022/04/20 07:51:56;;;;;;;15.68;7.80;;;6.50;81.50;;;;;;5039961;28;20082;-86
2022/04/20 07:54:22;;;;;;;12.80;7.70;;;6.60;80.10;;;;;;5041598;28;20025;-84
2022/04/20 07:56:48;;;;;;;16.98;9.07;;;6.70;77.60;;;;;;5047471;28;20033;-83
2022/04/20 07:59:13;;;;;;;15.57;7.53;;;6.80;80.80;;;;;;5045632;28;20116;-83
2022/04/20 08:01:40;;;;;;;18.67;9.35;;;7.10;77.10;;;;;;5046106;28;20097;-84
2022/04/20 08:04:06;;;;;;;18.73;9.88;;;7.30;81.20;;;;;;5045461;28;20404;-83
2022/04/20 08:06:32;;;;;;;21.42;9.85;;;7.30;79.60;;;;;;5041184;28;20029;-84
2022/04/20 08:08:57;;;;;;;16.75;8.63;;;7.50;84.60;;;;;;5037592;28;20025;-87
2022/04/20 08:11:23;;;;;;;21.45;10.05;;;7.60;80.70;;;;;;5024506;28;20060;-83
2022/04/20 08:16:33;;;;;;;17.75;7.88;;;7.40;75.50;;;;;;5042748;28;20408;-83
2022/04/20 08:18:58;;;;;;;15.43;8.52;;;7.40;73.70;;;;;;5042839;28;20029;-84
2022/04/20 08:21:24;;;;;;;16.63;9.88;;;7.50;73.80;;;;;;5028023;28;20037;-83
2022/04/20 08:23:50;;;;;;;16.20;9.25;;;7.70;73.70;;;;;;5023791;28;20033;-83
2022/04/20 08:26:15;;;;;;;15.80;8.45;;;8.00;72.50;;;;;;5036099;28;20212;-84
2022/04/20 08:28:41;;;;;;;18.92;9.80;;;7.80;69.90;;;;;;5022199;28;20029;-84
2022/04/20 08:31:07;;;;;;;19.13;9.90;;;8.00;73.00;;;;;;5034729;28;20045;-83
2022/04/20 08:33:33;;;;;;;22.13;8.70;;;8.50;73.30;;;;;;5042294;28;20041;-83
2022/04/20 08:35:59;;;;;;;18.98;9.32;;;8.40;69.10;;;;;;5033053;28;20037;-83
2022/04/20 08:38:25;;;;;;;18.17;9.27;;;8.50;65.80;;;;;;5043427;28;20220;-83
2022/04/20 08:40:56;;;;;;;17.38;8.45;;;8.50;66.90;;;;;;5043938;28;20502;-81
2022/04/20 08:43:23;;;;;;;21.90;9.55;;;8.50;66.40;;;;;;5044116;28;20163;-84
2022/04/20 08:45:49;;;;;;;20.60;9.75;;;8.30;66.70;;;;;;5041852;28;20033;-83
2022/04/20 08:48:15;;;;;;;22.58;9.75;;;8.50;66.40;;;;;;5041995;28;20029;-80
2022/04/20 08:50:42;;;;;;;15.77;9.75;;;8.80;64.90;;;;;;5026606;28;20032;-85
2022/04/20 08:53:09;;;;;;;21.15;9.45;;;9.10;64.20;;;;;;5043775;28;20029;-83
2022/04/20 08:55:34;;;;;;;16.73;8.48;;;9.00;62.20;;;;;;5043547;28;20033;-83
2022/04/20 08:58:02;;;;;;;16.85;7.97;;;9.10;60.50;;;;;;5043643;28;20421;-84
2022/04/20 09:00:28;;;;;;;17.50;10.43;;;9.10;60.90;;;;;;5041921;28;20021;-84
2022/04/20 09:02:56;;;;;;;20.42;9.00;;;9.10;60.50;;;;;;5044678;28;20492;-85
2022/04/20 09:05:30;;;;;;;17.33;9.35;;;9.10;59.30;;;;;;5027553;28;20148;-83
2022/04/20 09:07:56;;;;;;;18.90;10.60;;;9.10;59.80;;;;;;5054448;28;20032;-84
2022/04/20 09:10:23;;;;;;;22.02;8.52;;;9.40;62.50;;;;;;5040669;28;20025;-83
2022/04/20 09:13:07;;;;;;;15.48;9.38;;;9.50;59.30;;;;;;5042359;28;20123;-79
2022/04/20 09:15:35;;;;;;;17.83;9.30;;;9.60;58.20;;;;;;5038923;28;20099;-77
2022/04/20 09:18:05;;;;;;;18.73;10.90;;;9.60;57.60;;;;;;5043593;28;20082;-84
2022/04/20 09:20:35;;;;;;;18.33;9.17;;;9.90;58.80;;;;;;5041777;28;20112;-83
2022/04/20 09:23:09;;;;;;;16.40;7.80;;;9.90;57.10;;;;;;5044959;28;20111;-82
2022/04/20 09:25:37;;;;;;;16.50;8.15;;;9.90;55.20;;;;;;5042917;28;20033;-83
2022/04/20 09:28:07;;;;;;;12.90;8.60;;;10.10;54.90;;;;;;5047075;28;20544;-82
2022/04/20 09:30:41;;;;;;;14.13;8.88;;;10.20;52.90;;;;;;5028751;28;20511;-81
2022/04/20 09:33:09;;;;;;;14.02;8.52;;;10.20;54.50;;;;;;5047108;28;20045;-81
2022/04/20 09:35:45;;;;;;;18.55;10.52;;;10.60;53.50;;;;;;5048069;28;20017;-82
2022/04/20 09:38:12;;;;;;;16.70;8.43;;;10.70;54.20;;;;;;5048923;28;20068;-81
2022/04/20 09:40:38;;;;;;;17.58;9.55;;;10.40;53.00;;;;;;5051033;28;20039;-78
2022/04/20 09:43:15;;;;;;;13.43;8.35;;;10.40;54.10;;;;;;5052249;28;20021;-78
2022/04/20 09:48:50;;;;;;;15.13;8.50;;;10.60;52.10;;;;;;5049557;28;20032;-78
2022/04/20 09:49:12;;;;;;;16.40;8.40;;;11.00;52.00;;;;;;5046105;28;20103;-79
2022/04/20 09:51:43;;;;;;;16.88;9.68;;;11.10;52.60;;;;;;5047538;28;20056;-80
2022/04/20 09:54:26;;;;;;;;;;;10.80;50.90;;;;;;5083625;28;20036;-78
2022/04/20 09:57:13;;;;;;;17.17;8.52;;;10.90;51.30;;;;;;5044615;28;19908;-79
2022/04/20 10:00:10;;;;;;;11.82;6.78;;;11.20;52.10;;;;;;5042400;28;20025;-78
2022/04/20 10:02:54;;;;;;;17.70;7.97;;;11.30;49.70;;;;;;5034127;28;20574;-78
2022/04/20 10:05:22;;;;;;;14.00;8.25;;;11.40;50.30;;;;;;5051082;28;20082;-79
2022/04/20 10:07:48;;;;;;;16.75;8.20;;;11.50;49.80;;;;;;5054924;28;20033;-79
2022/04/20 10:10:14;;;;;;;22.73;8.80;;;11.30;48.00;;;;;;5052017;28;20644;-79
2022/04/20 10:12:42;;;;;;;14.05;8.13;;;11.20;50.70;;;;;;5038555;28;20021;-78
2022/04/20 10:17:56;;;;;;;14.93;7.70;;;11.20;48.30;;;;;;5046185;28;20299;-77
2022/04/20 10:20:25;;;;;;;18.48;7.75;;;11.70;45.70;;;;;;5049520;28;20150;-81
2022/04/20 10:22:52;;;;;;;15.40;7.28;;;11.90;46.50;;;;;;5050525;28;20029;-82
2022/04/20 10:25:17;;;;;;;13.02;6.75;;;12.00;46.40;;;;;;5051363;28;20074;-85
2022/04/20 10:28:27;;;;;;;12.40;8.18;;;12.10;45.10;;;;;;5028526;28;20128;-83
2022/04/20 10:31:18;;;;;;;17.35;8.32;;;12.40;46.60;;;;;;5037859;28;20116;-79
2022/04/20 10:33:45;;;;;;;16.80;9.00;;;12.10;44.30;;;;;;5053983;28;20044;-82
2022/04/20 10:36:27;;;;;;;13.88;7.95;;;12.30;44.50;;;;;;5041813;28;20026;-81
2022/04/20 10:39:22;;;;;;;12.95;7.70;;;12.10;44.30;;;;;;5047888;28;20036;-81
2022/04/20 10:42:11;;;;;;;18.15;9.05;;;12.80;45.70;;;;;;5051314;28;20033;-81
2022/04/20 10:45:10;;;;;;;13.73;7.90;;;12.80;43.50;;;;;;5050417;28;20100;-81
2022/04/20 10:47:42;;;;;;;14.20;7.65;;;12.90;43.30;;;;;;5037802;28;20102;-81
2022/04/20 10:50:25;;;;;;;15.57;7.78;;;13.20;43.20;;;;;;5049872;28;20032;-81
2022/04/20 10:53:04;;;;;;;13.90;8.98;;;13.90;41.10;;;;;;5046414;28;20094;-82
2022/04/20 10:55:36;;;;;;;13.90;8.27;;;13.70;40.40;;;;;;5043567;28;20029;-80
2022/04/20 10:58:16;;;;;;;13.27;7.85;;;13.60;39.30;;;;;;5059197;28;20116;-81
2022/04/20 11:00:42;;;;;;;12.13;7.50;;;13.40;40.20;;;;;;5044715;28;20037;-82
2022/04/20 11:03:10;;;;;;;15.25;7.97;;;13.80;41.10;;;;;;5036295;28;20030;-82
2022/04/20 11:05:53;;;;;;;13.95;7.97;;;14.80;41.10;;;;;;5048131;28;20036;-81
2022/04/20 11:08:20;;;;;;;13.40;8.10;;;15.00;36.90;;;;;;5047775;28;20041;-85
2022/04/20 11:19:53;;;;;;;14.95;9.65;;;14.90;35.90;;;;;;5043425;28;20052;-82
2022/04/20 11:22:19;;;;;;;13.07;9.05;;;15.50;36.20;;;;;;5050698;28;20029;-81
2022/04/20 11:24:45;;;;;;;16.23;8.68;;;15.60;35.40;;;;;;5045479;28;20033;-82
2022/04/20 11:27:12;;;;;;;12.50;8.02;;;15.40;35.20;;;;;;5040016;28;20033;-81
2022/04/20 11:29:38;;;;;;;13.95;8.43;;;15.20;37.40;;;;;;5041283;28;20045;-80
2022/04/20 11:32:07;;;;;;;12.63;8.25;;;15.50;35.80;;;;;;5037375;28;20037;-82
2022/04/20 11:34:35;;;;;;;12.80;8.38;;;15.60;34.60;;;;;;5041014;28;20036;-82
2022/04/20 11:37:03;;;;;;;13.57;8.63;;;15.80;35.30;;;;;;5043129;28;20134;-81
2022/04/20 11:39:30;;;;;;;12.95;8.18;;;16.30;35.90;;;;;;5037874;28;20042;-82
2022/04/20 11:41:58;;;;;;;14.50;9.15;;;16.40;33.10;;;;;;5042352;28;20184;-84
2022/04/20 11:44:50;;;;;;;16.30;9.73;;;16.60;31.90;;;;;;5044649;28;20025;-81
2022/04/20 11:47:17;;;;;;;14.25;9.30;;;16.10;33.20;;;;;;5042508;28;20098;-79
2022/04/20 11:49:46;;;;;;;13.15;8.77;;;15.80;33.80;;;;;;5045758;28;20056;-80
2022/04/20 11:52:15;;;;;;;13.77;8.93;;;15.70;34.50;;;;;;5028827;28;20140;-79
2022/04/20 11:54:48;;;;;;;14.48;9.25;;;16.40;34.70;;;;;;5028276;28;20036;-79
2022/04/20 11:57:15;;;;;;;13.13;8.30;;;16.50;34.30;;;;;;5076257;28;20025;-80
2022/04/20 11:59:51;;;;;;;13.55;9.38;;;16.50;33.20;;;;;;5043633;28;20071;-78
2022/04/20 12:02:19;;;;;;;15.55;9.55;;;15.40;33.80;;;;;;5038305;28;20036;-79
2022/04/20 12:04:46;;;;;;;12.25;9.02;;;15.90;32.80;;;;;;5043198;28;20034;-80
2022/04/20 12:07:12;;;;;;;13.57;8.88;;;16.20;31.90;;;;;;5045962;28;20037;-83
2022/04/20 12:09:40;;;;;;;18.55;9.90;;;16.90;32.50;;;;;;5046129;28;20029;-83
2022/04/20 12:12:11;;;;;;;13.38;9.27;;;17.40;31.10;;;;;;5045032;28;20578;-81
2022/04/20 12:14:38;;;;;;;16.17;10.57;;;17.90;31.00;;;;;;5041240;28;20091;-86
2022/04/20 12:17:13;;;;;;;16.13;10.70;;;18.00;29.80;;;;;;5038493;28;20527;-86
2022/04/20 12:19:42;;;;;;;14.90;9.63;;;18.80;29.90;;;;;;5043306;28;20322;-85
2022/04/20 12:22:10;;;;;;;14.60;9.80;;;19.40;29.10;;;;;;5027494;28;20060;-85
2022/04/20 12:24:37;;;;;;;16.73;9.35;;;19.00;28.00;;;;;;5073561;28;20033;-85
2022/04/20 12:27:03;;;;;;;15.05;8.60;;;18.80;27.40;;;;;;5042202;28;20025;-85
2022/04/20 12:29:33;;;;;;;14.18;9.65;;;18.90;27.40;;;;;;5044568;28;20025;-86
2022/04/20 12:32:00;;;;;;;15.68;9.82;;;18.30;27.70;;;;;;5041684;28;20041;-86
2022/04/20 12:34:30;;;;;;;13.07;8.93;;;18.20;27.40;;;;;;5051596;28;20040;-79
2022/04/20 12:37:03;;;;;;;;;;;19.30;27.50;;;;;;5052176;28;20116;-85
2022/04/20 12:39:42;;;;;;;13.50;9.02;;;18.90;28.30;;;;;;5048060;28;19917;-84
2022/04/20 12:42:17;;;;;;;14.23;9.67;;;19.10;29.20;;;;;;5043107;28;20017;-85
2022/04/20 12:44:53;;;;;;;11.55;8.45;;;19.60;26.90;;;;;;5047015;28;20047;-85
2022/04/20 12:47:19;;;;;;;16.20;9.10;;;19.40;26.60;;;;;;5046198;28;20108;-83
2022/04/20 12:49:52;;;;;;;12.35;9.20;;;18.90;27.90;;;;;;5041769;28;20029;-86
2022/04/20 12:52:22;;;;;;;12.82;8.85;;;19.10;27.10;;;;;;5045648;28;20033;-86
2022/04/20 12:55:17;;;;;;;16.48;10.07;;;19.00;27.20;;;;;;5030176;28;20529;-84
2022/04/20 13:03:31;;;;;;;13.50;8.55;;;19.70;26.80;;;;;;5041072;28;20403;-87
2022/04/20 13:05:57;;;;;;;19.00;9.88;;;20.10;26.80;;;;;;5042336;28;20041;-86
2022/04/20 13:08:23;;;;;;;12.88;8.65;;;20.40;26.00;;;;;;5026898;28;20029;-86
2022/04/20 13:10:49;;;;;;;12.13;9.23;;;19.90;25.30;;;;;;5046404;28;20029;-86
2022/04/20 13:13:15;;;;;;;11.75;8.20;;;20.50;24.80;;;;;;5045264;28;20809;-86
2022/04/20 13:15:41;;;;;;;17.60;9.38;;;21.30;24.60;;;;;;5023852;28;20116;-86
2022/04/20 13:18:09;;;;;;;12.52;9.00;;;20.90;24.60;;;;;;5041226;28;20036;-86
2022/04/20 13:20:35;;;;;;;10.88;8.43;;;20.30;25.00;;;;;;5045533;28;20036;-86
2022/04/20 13:23:01;;;;;;;14.75;8.43;;;20.10;24.50;;;;;;5048869;28;20037;-87
2022/04/20 13:28:11;;;;;;;15.45;9.27;;;21.20;24.50;;;;;;5048683;28;20032;-83
2022/04/20 13:30:39;;;;;;;13.02;8.70;;;21.60;24.20;;;;;;5046393;28;20029;-84